Time;durP1;ratioP1;P1;durP2;ratioP2;P2;SDS_P1;SDS_P2;PMS_P1;PMS_P2;Temp;Humidity;BMP_temperature;BMP_pressure;BME280_temperature;BME280_humidity;BME280_pressure;Samples;Min_cycle;Max_cycle;Signal;HPM_P1;HPM_P2
2022/11/15 00:01:02;;;;;;;19.00;12.27;;;18.30;54.90;;;;;;5122816;27;20448;-84
2022/11/15 00:03:30;;;;;;;16.67;12.20;;;18.30;54.90;;;;;;5122327;27;20452;-82
2022/11/15 00:06:02;;;;;;;15.70;11.40;;;18.30;55.00;;;;;;5123166;27;20469;-82
2022/11/15 00:08:31;;;;;;;16.07;12.50;;;18.30;54.80;;;;;;5121741;27;20470;-84
2022/11/15 00:10:59;;;;;;;17.70;12.30;;;18.30;55.00;;;;;;5130916;27;20443;-82
2022/11/15 00:13:29;;;;;;;18.20;12.57;;;18.30;55.00;;;;;;5116798;27;20536;-82
2022/11/15 00:15:58;;;;;;;19.23;11.87;;;18.30;54.90;;;;;;5118957;27;20448;-82
2022/11/15 00:18:26;;;;;;;17.57;12.20;;;18.30;54.90;;;;;;5116692;28;20456;-82
2022/11/15 00:20:54;;;;;;;16.30;11.83;;;18.20;54.80;;;;;;5123734;27;20455;-82
2022/11/15 00:23:22;;;;;;;15.27;11.20;;;18.20;54.90;;;;;;5116415;27;20531;-81
2022/11/15 00:25:56;;;;;;;16.27;11.57;;;18.20;54.90;;;;;;5125253;27;20470;-81
2022/11/15 00:28:24;;;;;;;17.53;11.70;;;18.20;54.90;;;;;;5128960;27;20423;-83
2022/11/15 00:30:54;;;;;;;17.50;12.37;;;18.20;54.90;;;;;;5123698;28;20444;-81
2022/11/15 00:33:22;;;;;;;14.70;10.73;;;18.20;54.90;;;;;;5119909;28;20471;-81
2022/11/15 00:35:50;;;;;;;17.33;11.60;;;18.20;55.00;;;;;;5133334;27;20478;-82
2022/11/15 00:38:18;;;;;;;16.40;11.67;;;18.20;54.90;;;;;;5122727;28;20428;-81
2022/11/15 00:40:46;;;;;;;19.03;11.97;;;18.10;54.90;;;;;;5125123;28;20436;-82
2022/11/15 00:43:14;;;;;;;16.83;11.50;;;18.10;54.80;;;;;;5125182;28;20444;-82
2022/11/15 00:45:42;;;;;;;15.80;11.90;;;18.10;55.00;;;;;;5123178;28;20467;-81
2022/11/15 00:48:11;;;;;;;21.40;11.60;;;18.10;54.90;;;;;;5122405;28;20439;-82
2022/11/15 00:50:40;;;;;;;17.60;12.13;;;18.10;54.80;;;;;;5120646;28;20432;-82
2022/11/15 00:53:08;;;;;;;21.27;11.63;;;18.00;54.80;;;;;;5123129;28;20467;-81
2022/11/15 00:55:37;;;;;;;18.50;12.37;;;18.00;54.80;;;;;;5123053;28;20474;-81
2022/11/15 00:58:05;;;;;;;16.03;10.93;;;18.00;54.80;;;;;;5121975;28;20455;-82
2022/11/15 01:00:33;;;;;;;16.73;11.87;;;18.00;54.80;;;;;;5118523;28;20463;-82
2022/11/15 01:03:01;;;;;;;14.93;11.17;;;18.00;54.90;;;;;;5120674;28;20435;-81
2022/11/15 01:05:30;;;;;;;18.93;12.80;;;18.00;54.90;;;;;;5119747;28;20464;-82
2022/11/15 01:07:58;;;;;;;15.57;11.60;;;17.90;54.60;;;;;;5121511;28;20436;-82
2022/11/15 01:10:26;;;;;;;13.33;10.40;;;18.00;54.80;;;;;;5120792;28;20435;-81
2022/11/15 01:12:54;;;;;;;16.33;11.03;;;17.90;54.90;;;;;;5120510;28;20471;-82
2022/11/15 01:15:22;;;;;;;16.47;11.73;;;17.90;54.90;;;;;;5119607;28;20482;-82
2022/11/15 01:17:50;;;;;;;17.27;11.77;;;17.90;54.90;;;;;;5122084;28;20467;-82
2022/11/15 01:20:19;;;;;;;14.70;10.77;;;17.90;54.90;;;;;;5120077;28;20447;-82
2022/11/15 01:22:49;;;;;;;20.50;14.63;;;17.80;54.90;;;;;;5115574;28;20425;-82
2022/11/15 01:25:17;;;;;;;23.60;15.47;;;17.90;55.00;;;;;;5115593;28;20497;-82
2022/11/15 01:27:46;;;;;;;21.83;14.73;;;17.90;54.80;;;;;;5115883;28;20478;-82
2022/11/15 01:30:14;;;;;;;22.27;15.03;;;17.80;55.00;;;;;;5113976;27;20455;-81
2022/11/15 01:32:42;;;;;;;20.40;14.00;;;17.80;55.00;;;;;;5119544;28;20476;-81
2022/11/15 01:35:10;;;;;;;20.80;13.80;;;17.80;55.00;;;;;;5125056;27;20481;-82
2022/11/15 01:37:38;;;;;;;20.23;14.67;;;17.80;55.20;;;;;;5119964;28;20453;-82
2022/11/15 01:40:09;;;;;;;20.60;14.07;;;17.80;55.20;;;;;;5116143;28;20451;-81
2022/11/15 01:42:37;;;;;;;19.60;13.87;;;17.70;55.00;;;;;;5122193;28;20451;-82
2022/11/15 01:45:06;;;;;;;20.13;14.20;;;17.70;55.30;;;;;;5107994;28;20478;-82
2022/11/15 01:47:36;;;;;;;20.70;14.30;;;17.80;55.20;;;;;;5117292;28;20456;-82
2022/11/15 01:50:05;;;;;;;18.70;13.80;;;17.70;55.20;;;;;;5117128;28;20447;-82
2022/11/15 01:52:33;;;;;;;18.80;13.43;;;17.80;55.30;;;;;;5124608;28;20465;-81
2022/11/15 01:55:03;;;;;;;20.90;13.63;;;17.80;55.40;;;;;;5126570;28;20481;-82
2022/11/15 01:57:33;;;;;;;18.50;13.23;;;17.70;55.20;;;;;;5119699;28;20458;-81
2022/11/15 02:00:01;;;;;;;19.27;13.50;;;17.70;55.40;;;;;;5117995;28;20467;-82
2022/11/15 02:02:30;;;;;;;19.03;13.33;;;17.70;55.40;;;;;;5124245;28;20460;-82
2022/11/15 02:04:58;;;;;;;16.80;12.40;;;17.70;55.30;;;;;;5130363;28;20472;-82
2022/11/15 02:07:26;;;;;;;20.53;13.67;;;17.70;55.40;;;;;;5123092;28;20473;-81
2022/11/15 02:09:54;;;;;;;19.40;13.10;;;17.70;55.40;;;;;;5120180;28;20448;-81
2022/11/15 02:12:22;;;;;;;16.93;13.13;;;17.70;55.40;;;;;;5127010;27;20452;-81
2022/11/15 02:14:53;;;;;;;16.33;12.40;;;17.70;55.40;;;;;;5118040;28;20475;-82
2022/11/15 02:17:29;;;;;;;17.43;12.40;;;17.70;55.40;;;;;;5129175;27;20456;-82
2022/11/15 02:20:30;;;;;;;17.23;12.90;;;17.70;55.40;;;;;;5124988;27;20484;-82
2022/11/15 02:23:19;;;;;;;17.77;12.63;;;17.70;55.50;;;;;;5127990;27;20448;-83
2022/11/15 02:25:53;;;;;;;17.90;13.03;;;17.70;55.60;;;;;;5124589;27;20498;-82
2022/11/15 02:28:38;;;;;;;19.80;12.80;;;17.80;55.50;;;;;;5125177;27;20503;-82
2022/11/15 02:31:09;;;;;;;16.33;12.23;;;17.80;55.40;;;;;;5119960;28;20454;-82
2022/11/15 02:33:40;;;;;;;16.20;11.50;;;17.80;55.60;;;;;;5107075;28;20469;-82
2022/11/15 02:36:11;;;;;;;17.87;12.30;;;17.80;55.50;;;;;;5116481;28;20448;-82
2022/11/15 02:38:42;;;;;;;16.63;12.27;;;17.80;55.60;;;;;;5117580;27;20456;-82
2022/11/15 02:41:11;;;;;;;14.47;11.40;;;17.80;55.50;;;;;;5130184;27;20470;-82
2022/11/15 02:43:58;;;;;;;14.60;11.60;;;17.80;55.40;;;;;;5126046;27;20447;-82
2022/11/15 02:49:32;;;;;;;15.57;12.00;;;17.80;55.50;;;;;;5120180;27;20452;-82
2022/11/15 02:52:00;;;;;;;16.57;12.10;;;17.80;55.40;;;;;;5134307;27;20454;-82
2022/11/15 02:54:31;;;;;;;15.57;12.30;;;17.80;55.40;;;;;;5140056;27;20470;-85
2022/11/15 02:57:01;;;;;;;14.90;11.27;;;17.80;55.40;;;;;;5130105;27;20455;-85
2022/11/15 03:00:05;;;;;;;16.73;11.73;;;17.80;55.40;;;;;;5132703;27;20442;-85
2022/11/15 03:02:43;;;;;;;15.83;11.53;;;17.90;55.40;;;;;;5122583;27;20448;-85
2022/11/15 03:05:16;;;;;;;17.50;11.33;;;17.80;55.40;;;;;;5119508;27;20466;-85
2022/11/15 03:07:46;;;;;;;18.03;12.10;;;17.80;55.40;;;;;;5119759;27;20478;-85
2022/11/15 03:10:18;;;;;;;14.33;10.90;;;17.80;55.40;;;;;;5114272;27;20443;-84
2022/11/15 03:12:47;;;;;;;15.63;11.13;;;17.80;55.40;;;;;;5125443;27;20455;-83
2022/11/15 03:15:18;;;;;;;14.40;10.67;;;17.80;55.40;;;;;;5129196;27;20475;-85
2022/11/15 03:17:50;;;;;;;17.60;11.20;;;17.90;55.50;;;;;;5122915;27;20452;-84
2022/11/15 03:20:18;;;;;;;15.43;11.37;;;17.90;55.50;;;;;;5121969;27;20443;-84
2022/11/15 03:22:47;;;;;;;14.43;10.77;;;17.90;55.50;;;;;;5121467;27;20455;-83
2022/11/15 03:25:18;;;;;;;16.00;11.27;;;17.90;55.40;;;;;;5127410;27;20470;-85
2022/11/15 03:27:48;;;;;;;14.93;10.93;;;17.90;55.40;;;;;;5122112;27;20448;-85
2022/11/15 03:30:17;;;;;;;15.40;10.63;;;17.90;55.40;;;;;;5127907;27;20456;-84
2022/11/15 03:32:47;;;;;;;15.80;10.90;;;17.90;55.40;;;;;;5123751;27;20462;-85
2022/11/15 03:35:19;;;;;;;15.67;11.40;;;17.90;55.20;;;;;;5125538;27;20468;-85
2022/11/15 03:37:49;;;;;;;17.80;10.60;;;17.90;55.30;;;;;;5132193;27;20448;-84
2022/11/15 03:40:19;;;;;;;15.30;11.60;;;17.90;55.40;;;;;;5127175;27;20444;-84
2022/11/15 03:42:49;;;;;;;15.43;11.13;;;17.90;55.30;;;;;;5127192;27;20479;-84
2022/11/15 03:45:18;;;;;;;13.57;10.80;;;17.90;55.40;;;;;;5127717;27;20474;-84
2022/11/15 03:47:48;;;;;;;16.50;10.83;;;17.90;55.40;;;;;;5136766;27;20451;-84
2022/11/15 03:50:19;;;;;;;12.77;10.30;;;17.90;55.40;;;;;;5125932;27;20452;-85
2022/11/15 03:52:47;;;;;;;15.33;11.47;;;17.90;55.40;;;;;;5128816;27;20452;-85
2022/11/15 03:55:18;;;;;;;14.20;10.57;;;17.90;55.40;;;;;;5131467;27;20497;-84
2022/11/15 03:57:48;;;;;;;14.30;10.80;;;17.90;55.40;;;;;;5128206;27;20458;-84
2022/11/15 04:00:16;;;;;;;13.93;10.00;;;17.90;55.50;;;;;;5141297;27;20446;-84
2022/11/15 04:02:44;;;;;;;14.30;11.33;;;17.90;55.60;;;;;;5129211;27;20463;-84
2022/11/15 04:05:12;;;;;;;11.93;9.90;;;17.90;55.50;;;;;;5120206;27;20464;-85
2022/11/15 04:07:42;;;;;;;14.30;10.33;;;18.00;55.60;;;;;;5123323;27;20448;-84
2022/11/15 04:10:11;;;;;;;13.10;10.30;;;18.00;55.50;;;;;;5120613;27;20448;-84
2022/11/15 04:12:41;;;;;;;15.17;10.80;;;18.00;55.50;;;;;;5125367;27;20478;-84
2022/11/15 04:15:10;;;;;;;12.40;9.40;;;18.00;55.50;;;;;;5128593;27;20462;-84
2022/11/15 04:17:40;;;;;;;11.67;9.50;;;18.00;55.50;;;;;;5131503;27;20447;-84
2022/11/15 04:25:42;;;;;;;14.80;9.97;;;18.00;55.50;;;;;;5136391;27;20515;-85
2022/11/15 04:28:10;;;;;;;12.57;9.77;;;17.90;55.50;;;;;;5133931;27;20493;-85
2022/11/15 04:30:39;;;;;;;12.47;10.10;;;18.00;55.60;;;;;;5127931;27;20447;-84
2022/11/15 04:33:07;;;;;;;16.23;10.60;;;18.00;55.70;;;;;;5122942;27;20599;-84
2022/11/15 04:35:35;;;;;;;12.23;10.10;;;18.00;55.70;;;;;;5124576;27;20467;-84
2022/11/15 04:38:04;;;;;;;12.17;9.97;;;18.00;55.60;;;;;;5124918;27;20455;-85
2022/11/15 04:40:32;;;;;;;11.83;9.20;;;18.00;55.50;;;;;;5125847;27;20455;-85
2022/11/15 04:43:00;;;;;;;11.27;9.07;;;18.00;55.60;;;;;;5124837;27;20452;-85
2022/11/15 04:45:31;;;;;;;12.40;9.93;;;18.10;55.50;;;;;;5134238;27;20527;-85
2022/11/15 04:47:59;;;;;;;12.00;9.37;;;18.10;55.50;;;;;;5131318;27;20453;-85
2022/11/15 04:50:27;;;;;;;15.13;10.17;;;18.00;55.60;;;;;;5122642;27;20443;-84
2022/11/15 04:52:55;;;;;;;11.50;9.23;;;18.00;55.70;;;;;;5124758;27;20453;-85
2022/11/15 04:55:24;;;;;;;11.23;9.30;;;18.10;55.60;;;;;;5129087;27;20471;-86
2022/11/15 04:57:59;;;;;;;13.20;10.00;;;18.00;55.60;;;;;;5126104;27;20463;-86
2022/11/15 05:00:27;;;;;;;12.30;9.90;;;18.10;55.50;;;;;;5133202;27;20455;-86
2022/11/15 05:05:41;;;;;;;10.80;8.87;;;18.00;55.40;;;;;;5122431;27;20471;-85
2022/11/15 05:08:09;;;;;;;13.10;9.40;;;18.10;55.60;;;;;;5127282;27;20447;-86
2022/11/15 05:10:39;;;;;;;10.60;8.83;;;18.10;55.80;;;;;;5123245;27;20447;-85
2022/11/15 05:13:07;;;;;;;12.27;8.63;;;18.10;55.60;;;;;;5127594;27;20460;-86
2022/11/15 05:15:34;;;;;;;9.13;8.13;;;18.10;55.70;;;;;;5132599;27;20498;-86
2022/11/15 05:18:02;;;;;;;12.80;9.93;;;18.00;55.60;;;;;;5128393;27;20463;-86
2022/11/15 05:20:30;;;;;;;14.50;9.30;;;18.10;55.60;;;;;;5122749;27;20452;-86
2022/11/15 05:22:59;;;;;;;10.93;8.63;;;18.00;55.50;;;;;;5117439;27;20459;-86
2022/11/15 05:25:27;;;;;;;10.40;9.10;;;18.00;55.60;;;;;;5120345;28;20463;-85
2022/11/15 05:27:56;;;;;;;12.73;9.30;;;18.10;55.50;;;;;;5121540;27;20458;-85
2022/11/15 05:30:24;;;;;;;12.20;9.07;;;18.10;55.60;;;;;;5131361;27;20447;-85
2022/11/15 05:32:52;;;;;;;10.50;8.37;;;18.10;55.50;;;;;;5120931;28;20458;-84
2022/11/15 05:35:25;;;;;;;11.57;9.03;;;18.10;55.70;;;;;;5123907;27;20472;-85
2022/11/15 05:37:54;;;;;;;11.63;9.10;;;18.10;55.50;;;;;;5119573;28;20459;-85
2022/11/15 05:40:22;;;;;;;13.93;9.63;;;18.10;55.50;;;;;;5124408;28;20456;-85
2022/11/15 05:42:50;;;;;;;10.97;8.97;;;18.10;55.60;;;;;;5122272;28;20458;-84
2022/11/15 05:45:19;;;;;;;13.13;9.90;;;18.10;55.40;;;;;;5112099;28;20464;-86
2022/11/15 05:47:53;;;;;;;10.97;8.70;;;18.10;55.50;;;;;;5124430;27;20467;-85
2022/11/15 05:50:21;;;;;;;10.67;8.37;;;18.10;55.60;;;;;;5117514;27;21129;-84
2022/11/15 05:52:50;;;;;;;11.20;9.13;;;18.10;55.40;;;;;;5120814;27;20451;-85
2022/11/15 05:55:18;;;;;;;9.97;8.07;;;18.10;55.40;;;;;;5120892;27;20464;-85
2022/11/15 05:57:45;;;;;;;9.97;8.43;;;18.10;55.50;;;;;;5126449;27;20458;-84
2022/11/15 06:00:14;;;;;;;9.80;8.13;;;18.10;55.50;;;;;;5141701;27;20469;-84
2022/11/15 06:02:44;;;;;;;10.37;8.37;;;18.10;55.50;;;;;;5128039;27;20448;-85
2022/11/15 06:05:12;;;;;;;10.70;8.10;;;18.10;55.50;;;;;;5129357;27;20466;-85
2022/11/15 06:07:40;;;;;;;10.60;8.73;;;18.10;55.60;;;;;;5135725;27;20454;-85
2022/11/15 06:10:09;;;;;;;8.83;7.90;;;18.10;55.50;;;;;;5130186;27;20454;-85
2022/11/15 06:12:37;;;;;;;10.20;7.93;;;18.10;55.60;;;;;;5126914;27;20447;-85
2022/11/15 06:15:06;;;;;;;10.20;7.43;;;18.20;55.60;;;;;;5133993;27;20477;-85
2022/11/15 06:17:34;;;;;;;9.57;7.73;;;18.20;55.70;;;;;;5134327;27;20464;-85
2022/11/15 06:20:04;;;;;;;10.37;7.80;;;18.20;55.50;;;;;;5140595;27;20458;-85
2022/11/15 06:22:32;;;;;;;8.77;7.50;;;18.20;55.50;;;;;;5129703;27;20451;-85
2022/11/15 06:25:01;;;;;;;8.13;7.33;;;18.20;55.50;;;;;;5129250;27;20468;-85
2022/11/15 06:27:32;;;;;;;9.27;7.50;;;18.20;55.40;;;;;;5126942;27;20452;-85
2022/11/15 06:30:01;;;;;;;10.83;7.50;;;18.20;55.60;;;;;;5131043;27;20464;-84
2022/11/15 06:32:30;;;;;;;9.53;7.77;;;18.20;55.50;;;;;;5117642;27;20452;-85
2022/11/15 06:34:57;;;;;;;9.13;8.23;;;18.20;55.50;;;;;;5122179;27;20475;-85
2022/11/15 06:37:27;;;;;;;8.63;7.73;;;18.20;55.50;;;;;;5137951;27;20468;-86
2022/11/15 06:39:55;;;;;;;10.50;8.10;;;18.20;55.50;;;;;;5131460;27;20447;-85
2022/11/15 06:42:23;;;;;;;9.67;7.33;;;18.20;55.50;;;;;;5123506;27;20448;-86
2022/11/15 06:44:51;;;;;;;8.97;7.60;;;18.20;55.40;;;;;;5126497;27;20461;-85
2022/11/15 06:47:20;;;;;;;9.40;7.90;;;18.20;55.50;;;;;;5133915;27;20450;-85
2022/11/15 06:49:48;;;;;;;9.07;7.07;;;18.20;55.40;;;;;;5129334;27;20479;-85
2022/11/15 06:52:18;;;;;;;8.20;7.40;;;18.20;55.50;;;;;;5135748;27;20447;-85
2022/11/15 06:54:47;;;;;;;8.63;7.20;;;18.20;55.40;;;;;;5129226;27;20467;-84
2022/11/15 06:57:16;;;;;;;9.30;7.30;;;18.20;55.50;;;;;;5132495;27;20537;-84
2022/11/15 06:59:44;;;;;;;14.10;7.43;;;18.20;55.50;;;;;;5132992;27;20444;-84
2022/11/15 07:02:13;;;;;;;8.33;7.40;;;18.20;55.50;;;;;;5127827;27;20459;-85
2022/11/15 07:04:41;;;;;;;7.90;7.03;;;18.20;55.40;;;;;;5135702;27;20524;-85
2022/11/15 07:07:10;;;;;;;7.93;7.13;;;18.20;55.50;;;;;;5128284;27;20448;-85
2022/11/15 07:09:38;;;;;;;8.53;7.53;;;18.30;55.50;;;;;;5124903;27;20451;-86
2022/11/15 07:12:08;;;;;;;8.90;7.17;;;18.30;55.60;;;;;;5129393;27;20966;-86
2022/11/15 07:14:36;;;;;;;8.70;7.40;;;18.30;55.50;;;;;;5127107;27;20475;-85
2022/11/15 07:17:04;;;;;;;9.87;7.50;;;18.30;55.60;;;;;;5126071;27;20476;-85
2022/11/15 07:19:34;;;;;;;7.90;7.10;;;18.30;55.60;;;;;;5125246;27;20454;-85
2022/11/15 07:22:02;;;;;;;8.83;7.10;;;18.30;55.60;;;;;;5129849;27;20456;-85
2022/11/15 07:24:30;;;;;;;7.90;7.10;;;18.40;55.50;;;;;;5128237;27;20477;-85
2022/11/15 07:26:58;;;;;;;8.27;7.30;;;18.40;55.50;;;;;;5123939;27;20458;-85
2022/11/15 07:29:28;;;;;;;7.47;6.60;;;18.40;55.60;;;;;;5128047;27;20531;-85
2022/11/15 07:31:57;;;;;;;7.47;6.47;;;18.40;55.50;;;;;;5129141;27;20464;-85
2022/11/15 07:34:25;;;;;;;9.00;7.23;;;18.40;55.40;;;;;;5127690;27;20463;-85
2022/11/15 07:36:54;;;;;;;9.37;7.23;;;18.50;55.50;;;;;;5124311;27;20479;-84
2022/11/15 07:39:22;;;;;;;8.20;6.40;;;18.50;55.50;;;;;;5136981;27;20444;-84
2022/11/15 07:42:52;;;;;;;8.40;6.93;;;18.50;55.20;;;;;;5128777;27;20447;-85
2022/11/15 07:44:40;;;;;;;7.97;7.07;;;18.50;55.40;;;;;;5138486;27;20471;-85
2022/11/15 07:47:08;;;;;;;11.83;6.00;;;18.50;55.40;;;;;;5132373;27;20450;-84
2022/11/15 07:49:35;;;;;;;7.63;6.67;;;18.60;55.30;;;;;;5132435;27;20447;-84
2022/11/15 07:52:04;;;;;;;7.90;6.70;;;18.60;55.40;;;;;;5120605;27;20448;-84
2022/11/15 07:54:32;;;;;;;8.90;7.07;;;18.60;55.30;;;;;;5129035;27;20470;-84
2022/11/15 07:57:01;;;;;;;10.00;7.63;;;18.60;55.90;;;;;;5127643;27;20478;-85
2022/11/15 07:59:34;;;;;;;7.10;6.40;;;18.60;55.10;;;;;;5131780;27;20537;-85
2022/11/15 08:02:04;;;;;;;7.90;6.40;;;18.60;55.20;;;;;;5125604;27;20466;-85
2022/11/15 08:04:32;;;;;;;9.40;7.10;;;18.60;55.40;;;;;;5128039;27;20467;-86
2022/11/15 08:07:00;;;;;;;7.37;6.57;;;18.70;55.30;;;;;;5128601;27;20448;-84
2022/11/15 08:09:28;;;;;;;7.30;6.60;;;18.70;55.20;;;;;;5123121;27;20522;-85
2022/11/15 08:11:57;;;;;;;7.53;6.83;;;18.80;55.20;;;;;;5123888;27;20467;-85
2022/11/15 08:14:25;;;;;;;7.60;6.87;;;18.80;55.00;;;;;;5127418;27;20479;-84
2022/11/15 08:16:53;;;;;;;6.40;5.83;;;18.80;55.00;;;;;;5128010;27;20466;-84
2022/11/15 08:19:23;;;;;;;6.83;6.13;;;18.80;55.10;;;;;;5129088;27;20447;-84
2022/11/15 08:21:51;;;;;;;7.80;6.97;;;18.80;55.10;;;;;;5124925;27;20452;-85
2022/11/15 08:24:19;;;;;;;7.23;6.30;;;18.90;55.00;;;;;;5128269;27;20477;-84
2022/11/15 08:26:47;;;;;;;12.67;6.60;;;18.90;55.10;;;;;;5126166;27;20439;-85
2022/11/15 08:29:15;;;;;;;7.83;6.83;;;18.90;55.00;;;;;;5127609;27;20477;-85
2022/11/15 08:31:43;;;;;;;7.03;6.03;;;18.90;55.00;;;;;;5132247;27;20451;-84
2022/11/15 08:34:12;;;;;;;6.53;5.93;;;19.00;55.00;;;;;;5119496;27;20471;-84
2022/11/15 08:36:41;;;;;;;7.97;7.13;;;19.00;54.80;;;;;;5113231;27;20468;-85
2022/11/15 08:39:13;;;;;;;9.40;6.73;;;19.00;54.80;;;;;;5115314;27;20539;-86
2022/11/15 08:41:41;;;;;;;7.90;6.10;;;18.90;54.80;;;;;;5125915;27;20446;-85
2022/11/15 08:44:09;;;;;;;7.60;6.63;;;18.90;54.90;;;;;;5131331;27;20456;-85
2022/11/15 08:46:38;;;;;;;7.53;6.73;;;19.00;55.00;;;;;;5116023;28;20545;-85
2022/11/15 08:49:06;;;;;;;7.47;6.67;;;18.90;54.70;;;;;;5116712;27;20420;-86
2022/11/15 08:51:34;;;;;;;7.53;6.73;;;18.90;55.00;;;;;;5114449;28;20443;-86
2022/11/15 08:54:04;;;;;;;6.80;6.00;;;18.90;54.90;;;;;;5114169;28;20470;-85
2022/11/15 08:56:32;;;;;;;7.50;6.50;;;18.90;55.10;;;;;;5113119;28;20470;-85
2022/11/15 08:59:00;;;;;;;7.20;6.47;;;18.90;55.20;;;;;;5114256;27;20444;-86
2022/11/15 09:01:28;;;;;;;7.50;6.30;;;18.90;55.10;;;;;;5120418;27;20507;-84
2022/11/15 09:03:56;;;;;;;7.13;6.30;;;18.90;55.10;;;;;;5124567;27;20475;-83
2022/11/15 09:06:24;;;;;;;8.33;6.57;;;18.90;55.10;;;;;;5129322;27;20449;-83
2022/11/15 09:08:53;;;;;;;6.90;6.20;;;18.90;55.00;;;;;;5126012;27;20442;-84
2022/11/15 09:11:23;;;;;;;7.03;6.33;;;18.90;55.10;;;;;;5123779;27;20443;-84
2022/11/15 09:13:51;;;;;;;6.53;5.87;;;18.90;55.10;;;;;;5117749;27;20480;-83
2022/11/15 09:16:19;;;;;;;6.73;6.13;;;18.90;55.10;;;;;;5112201;27;20439;-83
2022/11/15 09:18:47;;;;;;;7.43;6.43;;;19.00;55.20;;;;;;5113284;27;20443;-83
2022/11/15 09:21:15;;;;;;;6.67;6.07;;;19.00;55.30;;;;;;5127080;27;20449;-83
2022/11/15 09:23:43;;;;;;;6.57;5.87;;;19.00;55.20;;;;;;5120286;27;20506;-83
2022/11/15 09:26:11;;;;;;;7.63;6.30;;;19.10;55.00;;;;;;5124014;27;20455;-83
2022/11/15 09:28:42;;;;;;;8.03;5.80;;;19.10;55.10;;;;;;5116706;28;20454;-86
2022/11/15 09:31:10;;;;;;;6.70;6.00;;;19.10;55.00;;;;;;5120829;27;20446;-85
2022/11/15 09:33:38;;;;;;;8.47;6.50;;;19.10;55.00;;;;;;5120028;27;20474;-85
2022/11/15 09:36:08;;;;;;;7.73;6.07;;;19.20;55.00;;;;;;5114256;28;20458;-85
2022/11/15 09:38:36;;;;;;;7.20;6.20;;;19.20;55.20;;;;;;5116850;28;20467;-84
2022/11/15 09:41:21;;;;;;;8.13;6.30;;;19.20;55.00;;;;;;5113642;28;20455;-83
2022/11/15 09:43:55;;;;;;;6.10;5.60;;;19.30;54.90;;;;;;5122224;28;20472;-82
2022/11/15 09:46:28;;;;;;;6.33;5.40;;;19.20;55.00;;;;;;5116082;28;20451;-84
2022/11/15 09:48:56;;;;;;;11.13;6.07;;;19.30;55.00;;;;;;5110153;28;20456;-83
2022/11/15 09:51:28;;;;;;;6.13;5.53;;;19.30;55.00;;;;;;5115505;28;20457;-84
2022/11/15 09:54:12;;;;;;;6.63;5.93;;;19.30;55.00;;;;;;5127998;28;20476;-84
2022/11/15 09:57:05;;;;;;;6.67;5.97;;;19.30;55.10;;;;;;5107397;28;20468;-84
2022/11/15 09:59:47;;;;;;;6.53;5.90;;;19.30;55.00;;;;;;5114578;28;20538;-84
2022/11/15 10:02:24;;;;;;;6.50;5.80;;;19.30;55.00;;;;;;5123965;28;20444;-84
2022/11/15 10:04:52;;;;;;;5.80;5.30;;;19.30;54.90;;;;;;5132711;27;20462;-85
2022/11/15 10:07:21;;;;;;;7.33;5.57;;;19.40;55.00;;;;;;5119757;28;20447;-85
2022/11/15 10:09:52;;;;;;;7.97;6.27;;;19.40;55.00;;;;;;5114612;28;20524;-84
2022/11/15 10:12:20;;;;;;;5.87;5.37;;;19.40;54.90;;;;;;5123242;28;20455;-84
2022/11/15 10:14:52;;;;;;;8.10;5.90;;;19.50;55.10;;;;;;5116653;28;20491;-84
2022/11/15 10:17:30;;;;;;;8.80;6.20;;;19.50;54.90;;;;;;5113429;28;20463;-82
2022/11/15 10:20:07;;;;;;;6.73;6.07;;;19.60;54.90;;;;;;5117706;28;20542;-84
2022/11/15 10:22:38;;;;;;;6.20;5.60;;;19.70;54.80;;;;;;5121669;28;20451;-86
2022/11/15 10:25:21;;;;;;;6.60;5.57;;;19.70;54.70;;;;;;5118368;27;20474;-84
2022/11/15 10:27:56;;;;;;;6.80;6.10;;;19.80;54.60;;;;;;5116085;28;20478;-82
2022/11/15 10:30:33;;;;;;;6.17;5.57;;;19.80;54.40;;;;;;5120650;28;20450;-83
2022/11/15 10:33:10;;;;;;;6.83;5.80;;;19.80;54.40;;;;;;5119374;27;20457;-83
2022/11/15 10:35:39;;;;;;;6.07;5.40;;;19.80;54.70;;;;;;5123889;27;20490;-83
2022/11/15 10:38:08;;;;;;;6.17;5.53;;;19.80;54.70;;;;;;5121028;27;20442;-83
2022/11/15 10:40:36;;;;;;;6.30;5.30;;;19.80;54.70;;;;;;5122183;28;20454;-83
2022/11/15 10:43:06;;;;;;;7.00;5.60;;;19.90;54.60;;;;;;5122226;28;20459;-83
2022/11/15 10:45:37;;;;;;;6.47;5.80;;;19.80;54.40;;;;;;5119072;28;20475;-82
2022/11/15 10:48:26;;;;;;;6.93;5.63;;;19.80;54.60;;;;;;5122614;27;20440;-80
2022/11/15 10:50:55;;;;;;;6.57;5.60;;;19.80;54.80;;;;;;5118940;28;20459;-83
2022/11/15 10:53:27;;;;;;;7.17;6.57;;;19.80;54.70;;;;;;5120643;27;20474;-83
2022/11/15 10:55:56;;;;;;;6.17;5.60;;;19.80;54.60;;;;;;5120271;28;20452;-83
2022/11/15 10:58:37;;;;;;;7.93;6.03;;;19.80;54.70;;;;;;5120491;28;20502;-84
2022/11/15 11:01:12;;;;;;;7.43;6.00;;;19.80;54.70;;;;;;5125169;27;20443;-85
2022/11/15 11:03:40;;;;;;;6.47;5.73;;;19.80;54.60;;;;;;5125884;27;20447;-82
2022/11/15 11:06:10;;;;;;;7.40;5.80;;;19.90;54.80;;;;;;5124198;27;20448;-85
2022/11/15 11:08:38;;;;;;;8.77;5.50;;;19.90;54.80;;;;;;5136197;27;20448;-85
2022/11/15 11:11:07;;;;;;;6.33;5.73;;;20.00;55.00;;;;;;5118940;27;20449;-84
2022/11/15 11:13:36;;;;;;;9.23;5.53;;;20.10;54.80;;;;;;5128290;27;20454;-84
2022/11/15 11:16:17;;;;;;;7.00;5.80;;;20.10;54.80;;;;;;5123140;27;20455;-83
2022/11/15 11:18:49;;;;;;;9.50;5.63;;;20.20;54.50;;;;;;5126663;27;20495;-84
2022/11/15 11:21:20;;;;;;;5.90;5.20;;;20.30;54.40;;;;;;5119448;27;20458;-84
2022/11/15 11:23:58;;;;;;;5.77;5.07;;;20.30;54.50;;;;;;5122299;27;20499;-85
2022/11/15 11:26:34;;;;;;;5.40;4.90;;;20.30;54.40;;;;;;5120677;27;20454;-86
2022/11/15 11:29:06;;;;;;;5.20;4.70;;;20.30;54.40;;;;;;5121760;27;20444;-85
2022/11/15 11:31:41;;;;;;;6.03;5.20;;;20.30;54.40;;;;;;5127962;27;20462;-85
2022/11/15 11:34:14;;;;;;;7.83;6.27;;;20.30;54.30;;;;;;5121063;27;20475;-84
2022/11/15 11:36:46;;;;;;;5.97;5.20;;;20.30;54.50;;;;;;5122220;27;20447;-84
2022/11/15 11:39:21;;;;;;;6.00;5.33;;;20.30;54.40;;;;;;5124422;27;20464;-85
2022/11/15 11:41:57;;;;;;;9.87;5.67;;;20.30;54.50;;;;;;5116429;27;20442;-84
2022/11/15 11:44:33;;;;;;;5.57;5.07;;;20.30;54.50;;;;;;5122796;27;20471;-84
2022/11/15 11:47:07;;;;;;;5.83;5.33;;;20.30;54.70;;;;;;5114099;27;20513;-86
2022/11/15 11:49:42;;;;;;;6.60;5.43;;;20.40;54.80;;;;;;5132440;27;20459;-85
2022/11/15 11:52:13;;;;;;;6.50;5.10;;;20.60;54.60;;;;;;5126593;27;20442;-86
2022/11/15 11:54:46;;;;;;;5.10;4.60;;;20.70;54.40;;;;;;5130907;27;20471;-85
2022/11/15 11:57:19;;;;;;;5.90;5.00;;;20.90;54.50;;;;;;5123464;27;20453;-87
2022/11/15 11:59:52;;;;;;;4.90;4.50;;;21.00;54.20;;;;;;5108668;27;20468;-84
2022/11/15 12:02:25;;;;;;;6.93;5.40;;;21.00;53.80;;;;;;5121549;27;20451;-83
2022/11/15 12:04:56;;;;;;;4.80;4.30;;;20.90;54.00;;;;;;5125629;27;20477;-84
2022/11/15 12:07:25;;;;;;;5.47;4.97;;;20.90;54.00;;;;;;5118556;27;20452;-84
2022/11/15 12:09:56;;;;;;;5.00;4.60;;;20.90;54.10;;;;;;5128540;27;20449;-84
2022/11/15 12:12:28;;;;;;;5.53;5.03;;;20.90;54.30;;;;;;5126624;27;20431;-84
2022/11/15 12:14:58;;;;;;;4.53;4.13;;;20.90;54.20;;;;;;5130000;27;20463;-84
2022/11/15 12:17:31;;;;;;;5.13;4.50;;;20.90;54.30;;;;;;5119316;27;20444;-84
2022/11/15 12:19:59;;;;;;;5.07;4.33;;;21.00;54.70;;;;;;5121017;27;20519;-85
2022/11/15 12:22:34;;;;;;;5.17;4.70;;;21.40;54.80;;;;;;5121108;27;20456;-85
2022/11/15 12:25:03;;;;;;;4.80;4.40;;;21.60;54.00;;;;;;5126477;27;20477;-85
2022/11/15 12:27:33;;;;;;;4.53;4.20;;;21.60;53.40;;;;;;5124890;27;20553;-86
2022/11/15 12:30:09;;;;;;;9.97;4.70;;;21.50;53.40;;;;;;5116672;27;20439;-85
2022/11/15 12:32:40;;;;;;;4.70;4.40;;;21.40;53.50;;;;;;5130004;27;20443;-84
2022/11/15 12:35:24;;;;;;;5.73;4.70;;;21.40;53.50;;;;;;5114458;27;20463;-84
2022/11/15 12:37:52;;;;;;;8.63;4.60;;;21.40;53.60;;;;;;5115505;27;20454;-85
2022/11/15 12:40:22;;;;;;;4.97;4.57;;;21.50;54.30;;;;;;5123787;27;20444;-85
2022/11/15 12:43:27;;;;;;;6.20;4.27;;;22.00;54.60;;;;;;5123181;27;20461;-84
2022/11/15 12:45:55;;;;;;;6.37;4.50;;;22.40;54.00;;;;;;5111072;27;20454;-85
2022/11/15 12:48:59;;;;;;;5.70;4.17;;;22.80;53.40;;;;;;5118586;27;20423;-83
2022/11/15 12:52:08;;;;;;;4.43;4.03;;;23.30;52.60;;;;;;5120613;27;21017;-83
2022/11/15 12:55:00;;;;;;;8.10;3.63;;;23.50;52.20;;;;;;5088720;27;20469;-83
2022/11/15 12:57:30;;;;;;;4.20;3.80;;;23.80;51.90;;;;;;5124332;27;20459;-83
2022/11/15 13:00:01;;;;;;;7.80;4.10;;;24.00;51.70;;;;;;5116924;27;20495;-81
2022/11/15 13:02:31;;;;;;;3.97;3.60;;;24.20;51.50;;;;;;5116813;27;20452;-83
2022/11/15 13:05:38;;;;;;;3.87;3.60;;;24.40;51.20;;;;;;5130157;27;20457;-82
2022/11/15 13:08:12;;;;;;;3.77;3.57;;;24.60;50.90;;;;;;5133295;27;20439;-81